Time;durP1;ratioP1;P1;durP2;ratioP2;P2;SDS_P1;SDS_P2;PMS_P1;PMS_P2;Temp;Humidity;BMP_temperature;BMP_pressure;BME280_temperature;BME280_humidity;BME280_pressure;Samples;Min_cycle;Max_cycle;Signal;HPM_P1;HPM_P2
2023/06/12 00:00:56;;;;;;;6.35;2.92;;;21.40;93.00;;;;;;4980850;28;20374;-89
2023/06/12 00:03:25;;;;;;;4.40;2.92;;;21.40;93.00;;;;;;4978120;28;20045;-89
2023/06/12 00:05:51;;;;;;;5.60;2.53;;;21.30;93.10;;;;;;4982817;28;20462;-89
2023/06/12 00:08:18;;;;;;;6.55;2.50;;;21.20;93.10;;;;;;4964425;28;20117;-88
2023/06/12 00:10:48;;;;;;;5.95;2.72;;;21.20;93.10;;;;;;4948151;28;20517;-88
2023/06/12 00:13:14;;;;;;;7.85;2.53;;;21.20;93.50;;;;;;4989045;28;20042;-88
2023/06/12 00:15:40;;;;;;;8.02;3.05;;;21.20;93.20;;;;;;4974054;28;20031;-89
2023/06/12 00:18:06;;;;;;;5.10;2.53;;;21.10;93.20;;;;;;4967368;28;20140;-88
2023/06/12 00:20:36;;;;;;;6.03;2.80;;;21.10;93.30;;;;;;4960218;28;20049;-89
2023/06/12 00:23:02;;;;;;;7.38;2.90;;;21.00;93.30;;;;;;4979799;28;20042;-89
2023/06/12 00:25:28;;;;;;;6.65;2.72;;;21.00;93.50;;;;;;4972886;28;20264;-89
2023/06/12 00:27:54;;;;;;;5.35;2.80;;;20.90;93.60;;;;;;4949802;28;20141;-89
2023/06/12 00:30:20;;;;;;;5.78;2.38;;;20.90;93.70;;;;;;4975034;28;20397;-89
2023/06/12 00:32:49;;;;;;;5.18;2.90;;;20.90;93.70;;;;;;4990410;28;20041;-88
2023/06/12 00:35:19;;;;;;;6.78;2.80;;;20.80;93.70;;;;;;4986603;28;20043;-89
2023/06/12 00:37:46;;;;;;;5.60;2.63;;;20.80;93.80;;;;;;4969278;28;20042;-89
2023/06/12 00:40:13;;;;;;;6.45;2.67;;;20.80;93.80;;;;;;4964051;28;20121;-89
2023/06/12 00:42:47;;;;;;;5.75;2.72;;;20.70;93.70;;;;;;4976170;28;20095;-89
2023/06/12 00:45:14;;;;;;;5.47;2.83;;;20.70;93.90;;;;;;4982603;28;20167;-89
2023/06/12 00:47:41;;;;;;;7.05;2.85;;;20.60;94.00;;;;;;4976434;28;20034;-89
2023/06/12 00:50:12;;;;;;;5.20;2.90;;;20.60;94.10;;;;;;4981372;28;20565;-89
2023/06/12 00:52:44;;;;;;;6.50;2.50;;;20.60;94.10;;;;;;4982525;28;20093;-90
2023/06/12 00:55:11;;;;;;;6.50;2.53;;;20.50;94.30;;;;;;4986804;28;20038;-89
2023/06/12 00:57:38;;;;;;;6.75;2.75;;;20.50;94.40;;;;;;4980643;28;20049;-88
2023/06/12 01:00:07;;;;;;;5.00;2.50;;;20.50;94.20;;;;;;4966293;28;20406;-89
2023/06/12 01:02:39;;;;;;;11.13;2.88;;;20.50;94.20;;;;;;4954706;28;20505;-89
2023/06/12 01:05:34;;;;;;;6.28;2.50;;;20.50;94.30;;;;;;4973866;28;20081;-89
2023/06/12 01:08:17;;;;;;;6.40;2.97;;;20.40;94.40;;;;;;4988424;28;20042;-90
2023/06/12 01:11:04;;;;;;;8.77;2.63;;;20.30;94.80;;;;;;4987306;28;20039;-88
2023/06/12 01:13:31;;;;;;;5.20;2.50;;;20.30;94.40;;;;;;4986476;28;20070;-89
2023/06/12 01:15:57;;;;;;;5.72;2.60;;;20.20;94.40;;;;;;4967634;28;20049;-89
2023/06/12 01:18:23;;;;;;;8.98;3.17;;;20.10;94.40;;;;;;4989179;28;20042;-89
2023/06/12 01:20:50;;;;;;;5.82;2.92;;;20.10;94.50;;;;;;4990223;28;20038;-89
2023/06/12 01:23:58;;;;;;;7.18;2.50;;;20.10;94.70;;;;;;4983958;28;20563;-88
2023/06/12 01:26:49;;;;;;;7.70;2.75;;;20.00;95.40;;;;;;4969941;28;20081;-87
2023/06/12 01:29:46;;;;;;;7.90;2.85;;;19.90;95.10;;;;;;4980339;28;20482;-88
2023/06/12 01:32:16;;;;;;;5.28;2.42;;;19.90;95.30;;;;;;4976797;28;20030;-89
2023/06/12 01:34:51;;;;;;;7.47;2.40;;;19.80;95.00;;;;;;4963549;28;20033;-88
2023/06/12 01:37:26;;;;;;;6.70;2.78;;;19.80;95.10;;;;;;4968040;28;20042;-89
2023/06/12 01:40:00;;;;;;;8.15;2.50;;;19.70;95.40;;;;;;4962758;28;20121;-89
2023/06/12 01:42:28;;;;;;;5.18;2.70;;;19.70;95.30;;;;;;4967979;28;20050;-88
2023/06/12 01:44:54;;;;;;;5.13;2.60;;;19.60;95.30;;;;;;4951315;28;20061;-88
2023/06/12 01:47:20;;;;;;;9.38;2.65;;;19.60;95.30;;;;;;4965484;28;20046;-89
2023/06/12 01:49:47;;;;;;;12.50;3.33;;;19.60;95.30;;;;;;4972443;28;20125;-89
2023/06/12 01:52:13;;;;;;;6.97;2.35;;;19.50;95.40;;;;;;4983891;28;20489;-89
2023/06/12 01:54:40;;;;;;;5.43;2.22;;;19.50;95.50;;;;;;4960075;28;20141;-88
2023/06/12 01:57:06;;;;;;;7.82;2.85;;;19.50;95.50;;;;;;4953343;28;20178;-88
2023/06/12 01:59:34;;;;;;;9.65;2.90;;;19.50;95.70;;;;;;4951875;28;20586;-88
2023/06/12 02:02:01;;;;;;;4.95;2.40;;;19.40;95.80;;;;;;4969813;28;20050;-89
2023/06/12 02:04:31;;;;;;;8.57;2.90;;;19.40;95.70;;;;;;4987181;28;20089;-89
2023/06/12 02:06:56;;;;;;;8.52;2.50;;;19.40;95.80;;;;;;4985553;28;20045;-88
2023/06/12 02:09:22;;;;;;;7.07;2.80;;;19.40;95.90;;;;;;4999729;28;20030;-90
2023/06/12 02:11:49;;;;;;;6.15;3.03;;;19.20;95.80;;;;;;4979717;28;20507;-90
2023/06/12 02:14:15;;;;;;;11.00;3.00;;;19.30;95.80;;;;;;4986740;28;20046;-89
2023/06/12 02:16:45;;;;;;;5.80;2.63;;;19.20;95.80;;;;;;4989113;28;20045;-90
2023/06/12 02:19:12;;;;;;;5.05;2.70;;;19.20;95.90;;;;;;4986828;28;20104;-89
2023/06/12 02:21:38;;;;;;;5.43;2.60;;;19.10;96.00;;;;;;4995560;28;20042;-89
2023/06/12 02:24:04;;;;;;;6.63;3.10;;;19.00;96.10;;;;;;4998533;28;20048;-89
2023/06/12 02:26:30;;;;;;;7.57;2.42;;;19.00;96.10;;;;;;4981046;28;20473;-88
2023/06/12 02:29:10;;;;;;;8.75;3.60;;;19.00;96.30;;;;;;5002207;28;20037;-89
2023/06/12 02:31:39;;;;;;;5.72;2.80;;;19.00;96.50;;;;;;4984954;28;20081;-89
2023/06/12 02:34:05;;;;;;;9.40;3.38;;;18.90;96.40;;;;;;4990615;28;20125;-87
2023/06/12 02:36:30;;;;;;;7.40;2.72;;;18.90;96.30;;;;;;4987940;28;20046;-89
2023/06/12 02:38:57;;;;;;;8.05;2.60;;;18.90;96.30;;;;;;4987701;28;20049;-89
2023/06/12 02:41:23;;;;;;;6.03;2.58;;;18.80;96.30;;;;;;4973755;28;20068;-90
2023/06/12 02:43:49;;;;;;;6.32;2.65;;;18.80;96.40;;;;;;4990696;28;20069;-89
2023/06/12 02:46:14;;;;;;;6.10;2.85;;;18.80;96.50;;;;;;4988679;28;20074;-89
2023/06/12 02:48:40;;;;;;;5.85;2.53;;;18.70;96.50;;;;;;4998360;28;20074;-89
2023/06/12 02:51:06;;;;;;;8.95;2.83;;;18.70;96.50;;;;;;4998226;28;20072;-89
2023/06/12 02:53:32;;;;;;;7.13;2.78;;;18.70;96.50;;;;;;4998269;28;20081;-89
2023/06/12 02:55:57;;;;;;;7.53;3.22;;;18.70;96.70;;;;;;4994399;28;20042;-89
2023/06/12 02:58:23;;;;;;;9.35;3.58;;;18.60;96.70;;;;;;4998126;28;20096;-89
2023/06/12 03:00:49;;;;;;;5.00;2.92;;;18.60;96.80;;;;;;5001952;28;20034;-89
2023/06/12 03:03:17;;;;;;;7.55;2.97;;;18.50;96.90;;;;;;5001751;28;20424;-89
2023/06/12 03:05:45;;;;;;;8.50;2.92;;;18.50;96.90;;;;;;5004302;28;20039;-89
2023/06/12 03:08:10;;;;;;;7.63;3.05;;;18.50;97.00;;;;;;4997454;28;20042;-87
2023/06/12 03:10:36;;;;;;;9.13;3.08;;;18.40;97.00;;;;;;4998442;28;20244;-89
2023/06/12 03:13:03;;;;;;;9.98;3.17;;;18.40;97.00;;;;;;5000706;28;20038;-90
2023/06/12 03:15:30;;;;;;;9.85;3.25;;;18.40;97.10;;;;;;4966897;28;20117;-89
2023/06/12 03:17:55;;;;;;;12.35;3.72;;;18.30;97.10;;;;;;4995110;28;20646;-89
2023/06/12 03:20:24;;;;;;;9.90;3.90;;;18.30;97.20;;;;;;5006418;28;20041;-89
2023/06/12 03:22:50;;;;;;;10.65;3.53;;;18.30;97.30;;;;;;5000585;28;20109;-88
2023/06/12 03:25:22;;;;;;;9.80;3.40;;;18.20;97.40;;;;;;4995220;28;20034;-89
2023/06/12 03:27:49;;;;;;;11.43;3.80;;;18.20;97.40;;;;;;4981931;28;20151;-89
2023/06/12 03:30:14;;;;;;;6.72;3.30;;;18.10;97.50;;;;;;4994498;28;20084;-90
2023/06/12 03:32:40;;;;;;;6.88;3.20;;;18.10;97.50;;;;;;4974371;28;20451;-89
2023/06/12 03:35:06;;;;;;;7.68;3.60;;;18.10;97.60;;;;;;5002229;28;20038;-89
2023/06/12 03:37:32;;;;;;;7.78;3.03;;;18.10;97.70;;;;;;5007290;28;20417;-90
2023/06/12 03:39:57;;;;;;;8.05;3.60;;;18.10;97.90;;;;;;4995177;28;20069;-89
2023/06/12 03:42:23;;;;;;;8.63;3.15;;;18.00;97.90;;;;;;4999708;28;20038;-90
2023/06/12 03:44:49;;;;;;;11.77;4.00;;;18.00;98.00;;;;;;4998432;28;20038;-89
2023/06/12 03:47:14;;;;;;;8.57;2.85;;;18.00;98.10;;;;;;4999457;28;20053;-89
2023/06/12 03:49:40;;;;;;;9.82;3.17;;;17.90;98.10;;;;;;5006277;28;20137;-90
2023/06/12 03:52:07;;;;;;;9.77;3.85;;;17.90;98.10;;;;;;4986519;28;20054;-89
2023/06/12 03:54:33;;;;;;;6.60;3.40;;;17.90;98.20;;;;;;5004118;28;20038;-89
2023/06/12 03:56:58;;;;;;;8.43;3.35;;;17.90;98.30;;;;;;4963280;28;20041;-89
2023/06/12 03:59:24;;;;;;;11.18;4.03;;;17.90;98.40;;;;;;5006843;28;20085;-89
2023/06/12 04:01:51;;;;;;;8.63;3.92;;;17.80;98.50;;;;;;4996970;28;20473;-90
2023/06/12 04:04:17;;;;;;;7.88;3.47;;;17.80;98.90;;;;;;5005880;28;20092;-89
2023/06/12 04:06:46;;;;;;;7.13;3.30;;;17.80;98.70;;;;;;4983440;28;20042;-89
2023/06/12 04:09:15;;;;;;;6.65;3.20;;;17.80;98.90;;;;;;5002455;28;20077;-90
2023/06/12 04:11:42;;;;;;;7.75;3.55;;;17.80;98.70;;;;;;5004776;28;20088;-89
2023/06/12 04:14:08;;;;;;;6.63;3.05;;;17.70;98.90;;;;;;4991120;28;20034;-89
2023/06/12 04:16:34;;;;;;;10.05;3.35;;;17.80;99.00;;;;;;4997653;28;20034;-89
2023/06/12 04:19:03;;;;;;;7.10;3.42;;;17.70;99.00;;;;;;4995712;28;20104;-89
2023/06/12 04:21:33;;;;;;;9.32;3.17;;;17.70;99.20;;;;;;4989492;28;20045;-90
2023/06/12 04:24:00;;;;;;;9.38;3.53;;;17.70;99.20;;;;;;5001447;28;20080;-90
2023/06/12 04:26:27;;;;;;;11.00;3.15;;;17.60;99.30;;;;;;5002113;28;20045;-89
2023/06/12 04:28:54;;;;;;;7.13;3.08;;;17.60;99.40;;;;;;5002388;28;20035;-90
2023/06/12 04:31:20;;;;;;;6.80;3.47;;;17.60;99.40;;;;;;4991940;28;20085;-89
2023/06/12 04:33:48;;;;;;;6.10;2.88;;;17.60;99.70;;;;;;4998372;28;20066;-90
2023/06/12 04:36:17;;;;;;;6.15;3.28;;;17.60;99.60;;;;;;4983618;28;20045;-89
2023/06/12 04:38:43;;;;;;;12.00;3.80;;;17.60;99.80;;;;;;4984322;28;20061;-89
2023/06/12 04:41:10;;;;;;;8.52;3.47;;;17.60;99.90;;;;;;5006150;28;20050;-89
2023/06/12 04:43:36;;;;;;;13.60;3.97;;;17.50;99.90;;;;;;4993113;28;20477;-90
2023/06/12 04:46:02;;;;;;;7.97;4.43;;;17.50;99.90;;;;;;4994269;28;20489;-89
2023/06/12 04:48:28;;;;;;;6.97;3.13;;;17.60;99.90;;;;;;4996088;28;20034;-89
2023/06/12 04:50:54;;;;;;;8.07;3.83;;;17.60;99.90;;;;;;5003561;28;20053;-89
2023/06/12 04:53:27;;;;;;;4.55;2.45;;;17.50;99.90;;;;;;4984042;28;20057;-89
2023/06/12 04:55:56;;;;;;;9.40;3.63;;;17.50;99.90;;;;;;4987981;28;20096;-90
2023/06/12 04:58:22;;;;;;;8.30;4.47;;;17.50;99.90;;;;;;5001195;28;20045;-89
2023/06/12 05:00:48;;;;;;;7.05;3.42;;;17.50;99.90;;;;;;5006219;28;20038;-89
2023/06/12 05:03:20;;;;;;;6.35;4.15;;;17.50;99.90;;;;;;4998086;28;20058;-89
2023/06/12 05:05:46;;;;;;;9.95;4.20;;;17.50;99.90;;;;;;5007350;28;20547;-89
2023/06/12 05:08:13;;;;;;;11.20;3.80;;;17.50;99.90;;;;;;4999606;28;20076;-85
2023/06/12 05:10:42;;;;;;;10.07;4.10;;;17.50;99.90;;;;;;4992977;28;20084;-85
2023/06/12 05:13:08;;;;;;;11.85;4.38;;;17.50;99.90;;;;;;4996549;28;20038;-84
2023/06/12 05:15:33;;;;;;;8.75;3.90;;;17.50;99.90;;;;;;4998628;28;20050;-83
2023/06/12 05:18:00;;;;;;;11.57;3.92;;;17.60;99.90;;;;;;5002937;28;20034;-84
2023/06/12 05:20:26;;;;;;;10.13;4.60;;;17.60;99.90;;;;;;4998766;28;20096;-83
2023/06/12 05:22:52;;;;;;;6.90;3.58;;;17.60;99.90;;;;;;4981369;28;20278;-83
2023/06/12 05:25:18;;;;;;;8.75;4.15;;;17.60;99.90;;;;;;4984244;28;20496;-81
2023/06/12 05:27:43;;;;;;;9.32;4.13;;;17.60;99.90;;;;;;5000375;28;20608;-83
2023/06/12 05:30:09;;;;;;;17.35;4.88;;;17.60;99.90;;;;;;4984544;28;20030;-84
2023/06/12 05:32:35;;;;;;;7.90;4.25;;;17.60;99.90;;;;;;4988030;28;20053;-85
2023/06/12 05:35:02;;;;;;;9.52;4.07;;;17.60;99.90;;;;;;4982972;28;20042;-86
2023/06/12 05:37:28;;;;;;;8.32;3.55;;;17.60;99.90;;;;;;4997901;28;20069;-85
2023/06/12 05:39:54;;;;;;;9.27;4.00;;;17.70;99.90;;;;;;4996359;28;20033;-85
2023/06/12 05:42:20;;;;;;;9.25;4.15;;;17.70;99.90;;;;;;4996859;28;20038;-85
2023/06/12 05:44:48;;;;;;;10.10;4.00;;;17.70;99.90;;;;;;5000125;28;20042;-85
2023/06/12 05:47:14;;;;;;;7.35;4.18;;;17.80;99.90;;;;;;4987972;28;20042;-85
2023/06/12 05:49:40;;;;;;;8.32;4.60;;;17.80;99.90;;;;;;5002284;28;20500;-86
2023/06/12 05:52:06;;;;;;;8.63;4.30;;;17.80;99.90;;;;;;4996638;28;20439;-87
2023/06/12 05:54:31;;;;;;;9.00;4.47;;;17.80;99.90;;;;;;4992153;28;20046;-84
2023/06/12 05:56:57;;;;;;;8.00;4.13;;;17.90;99.90;;;;;;4996943;28;20230;-86
2023/06/12 05:59:26;;;;;;;8.75;4.82;;;17.90;99.90;;;;;;4997376;28;20076;-86
2023/06/12 06:01:51;;;;;;;14.77;5.03;;;17.90;99.90;;;;;;4986364;28;20050;-85
2023/06/12 06:04:17;;;;;;;8.73;3.83;;;17.90;99.90;;;;;;4986997;28;20048;-85
2023/06/12 06:06:43;;;;;;;9.80;4.10;;;17.90;99.90;;;;;;4981195;28;20042;-83
2023/06/12 06:09:08;;;;;;;8.00;4.50;;;18.00;99.90;;;;;;4999492;28;20045;-83
2023/06/12 06:11:34;;;;;;;10.52;5.30;;;18.00;99.90;;;;;;4985435;28;20113;-85
2023/06/12 06:14:00;;;;;;;10.88;4.32;;;18.00;99.90;;;;;;4998868;28;20042;-87
2023/06/12 06:16:26;;;;;;;12.63;4.90;;;18.00;99.90;;;;;;4992918;28;20046;-86
2023/06/12 06:18:52;;;;;;;9.25;4.45;;;18.10;99.90;;;;;;4981589;28;20042;-88
2023/06/12 06:21:18;;;;;;;10.88;4.68;;;18.10;99.90;;;;;;4988966;28;20034;-87
2023/06/12 06:23:44;;;;;;;10.60;4.32;;;18.10;99.90;;;;;;4977241;28;20362;-85
2023/06/12 06:26:10;;;;;;;8.88;4.25;;;18.20;99.90;;;;;;5002773;28;20440;-86
2023/06/12 06:28:36;;;;;;;9.85;4.65;;;18.20;99.90;;;;;;4972682;28;20046;-86
2023/06/12 06:31:08;;;;;;;9.18;4.63;;;18.20;99.90;;;;;;5001770;28;20042;-86
2023/06/12 06:33:35;;;;;;;9.18;4.60;;;18.20;99.90;;;;;;4982616;28;20104;-85
2023/06/12 06:36:01;;;;;;;11.35;5.40;;;18.20;99.90;;;;;;4986262;28;20053;-86
2023/06/12 06:38:27;;;;;;;10.32;4.90;;;18.30;99.90;;;;;;4986048;28;20491;-84
2023/06/12 06:40:53;;;;;;;7.95;4.75;;;18.40;99.90;;;;;;5001460;28;20042;-82
2023/06/12 06:43:19;;;;;;;10.10;4.88;;;18.40;99.90;;;;;;4985792;28;20413;-84
2023/06/12 06:45:44;;;;;;;9.73;5.47;;;18.50;99.90;;;;;;4991138;28;20038;-84
2023/06/12 06:48:12;;;;;;;9.50;4.88;;;18.50;99.90;;;;;;4983284;28;20424;-83
2023/06/12 06:50:39;;;;;;;9.68;5.57;;;18.50;99.90;;;;;;4995013;28;20100;-84
2023/06/12 06:53:05;;;;;;;9.15;4.70;;;18.60;99.90;;;;;;5001072;28;20030;-85
2023/06/12 06:55:30;;;;;;;13.15;5.97;;;18.60;99.90;;;;;;4983629;28;20473;-85
2023/06/12 06:57:57;;;;;;;10.70;5.80;;;18.70;99.90;;;;;;5001507;28;20045;-85
2023/06/12 07:00:23;;;;;;;11.05;5.65;;;18.70;99.90;;;;;;4986723;28;20093;-85
2023/06/12 07:02:49;;;;;;;10.80;5.38;;;18.70;99.90;;;;;;4990302;28;20085;-85
2023/06/12 07:05:15;;;;;;;9.23;5.15;;;18.80;99.90;;;;;;4990983;28;20104;-85
2023/06/12 07:07:46;;;;;;;11.13;5.07;;;18.90;99.90;;;;;;4987738;28;20045;-87
2023/06/12 07:10:12;;;;;;;11.05;5.22;;;19.00;99.90;;;;;;4971254;28;20104;-83
2023/06/12 07:12:38;;;;;;;11.93;5.63;;;19.10;99.90;;;;;;4987852;28;20038;-82
2023/06/12 07:15:04;;;;;;;12.30;5.63;;;19.30;99.90;;;;;;5007326;28;20417;-84
2023/06/12 07:17:30;;;;;;;10.82;5.13;;;19.50;99.90;;;;;;4999722;28;20485;-84
2023/06/12 07:19:55;;;;;;;11.40;4.70;;;19.80;99.90;;;;;;5000386;28;20041;-83
2023/06/12 07:22:21;;;;;;;12.10;5.90;;;20.20;99.90;;;;;;4988121;28;20041;-87
2023/06/12 07:24:47;;;;;;;14.35;5.85;;;20.40;99.90;;;;;;4989323;28;20045;-86
2023/06/12 07:27:13;;;;;;;11.00;5.68;;;20.70;99.90;;;;;;5002728;28;20110;-84
2023/06/12 07:29:38;;;;;;;10.40;5.15;;;21.00;99.90;;;;;;4989988;28;20082;-85
2023/06/12 07:32:05;;;;;;;12.55;5.72;;;21.20;99.90;;;;;;5003060;28;20050;-85
2023/06/12 07:34:30;;;;;;;9.18;5.30;;;21.30;99.90;;;;;;5003199;28;20069;-85
2023/06/12 07:36:58;;;;;;;12.23;5.78;;;21.30;99.90;;;;;;4990832;28;20479;-92
2023/06/12 07:39:24;;;;;;;11.23;5.07;;;21.30;99.90;;;;;;4991887;28;20127;-90
2023/06/12 07:41:50;;;;;;;17.25;6.28;;;21.30;99.90;;;;;;4983025;28;20042;-89
2023/06/12 07:44:16;;;;;;;11.30;5.82;;;21.30;99.90;;;;;;5005232;28;20085;-89
2023/06/12 07:46:42;;;;;;;9.82;5.00;;;21.40;99.90;;;;;;4984456;28;20101;-89
2023/06/12 07:49:07;;;;;;;11.45;5.75;;;21.50;99.90;;;;;;4981458;28;20076;-89
2023/06/12 07:51:33;;;;;;;15.15;5.63;;;21.50;99.90;;;;;;4997054;28;20547;-89
2023/06/12 07:53:59;;;;;;;7.47;4.82;;;21.60;99.90;;;;;;4981333;28;20144;-89
2023/06/12 07:56:25;;;;;;;10.52;5.95;;;21.70;99.90;;;;;;4983097;28;20038;-89
2023/06/12 07:58:52;;;;;;;10.40;5.60;;;21.80;99.90;;;;;;4988692;28;20041;-89
2023/06/12 08:01:18;;;;;;;10.23;5.55;;;21.90;99.90;;;;;;5002324;28;20034;-86
2023/06/12 08:03:45;;;;;;;7.93;5.68;;;22.00;99.90;;;;;;4989584;28;20134;-89
2023/06/12 08:06:12;;;;;;;11.25;6.03;;;22.10;99.90;;;;;;5004750;28;20038;-90
2023/06/12 08:08:42;;;;;;;9.50;5.57;;;22.10;99.50;;;;;;4999677;28;20049;-89
2023/06/12 08:11:09;;;;;;;15.88;5.32;;;22.20;99.30;;;;;;4995623;28;20489;-89
2023/06/12 08:13:34;;;;;;;8.93;5.07;;;22.30;99.50;;;;;;4985208;28;20046;-90
2023/06/12 08:16:01;;;;;;;10.05;5.35;;;22.40;99.30;;;;;;4986590;28;20038;-91
2023/06/12 08:18:27;;;;;;;10.00;5.63;;;22.50;99.40;;;;;;4988234;28;20405;-90
2023/06/12 08:20:52;;;;;;;11.20;5.38;;;22.60;99.90;;;;;;4998753;28;20042;-89
2023/06/12 08:23:18;;;;;;;8.95;5.50;;;22.70;99.50;;;;;;5005789;28;20050;-89
2023/06/12 08:25:44;;;;;;;12.75;5.85;;;22.80;99.80;;;;;;4979366;28;20386;-89
2023/06/12 08:28:09;;;;;;;11.48;5.55;;;22.90;99.50;;;;;;4989621;28;20397;-89
2023/06/12 08:30:35;;;;;;;11.60;5.80;;;23.00;99.60;;;;;;4990419;28;20077;-89
2023/06/12 08:33:00;;;;;;;11.15;5.43;;;23.10;99.30;;;;;;4991056;28;20445;-89
2023/06/12 08:35:26;;;;;;;13.82;4.97;;;23.10;98.70;;;;;;4998027;28;20039;-89
2023/06/12 08:37:52;;;;;;;9.95;5.10;;;23.20;98.50;;;;;;4998598;28;20038;-90
2023/06/12 08:40:17;;;;;;;10.23;5.18;;;23.30;98.40;;;;;;5002211;28;20031;-88
2023/06/12 08:42:50;;;;;;;10.80;5.20;;;23.30;98.60;;;;;;4992530;28;20050;-86
2023/06/12 08:45:18;;;;;;;8.02;4.90;;;23.50;98.60;;;;;;4978674;28;20113;-85
2023/06/12 08:47:47;;;;;;;9.57;5.25;;;23.50;98.00;;;;;;4994562;28;20066;-86
2023/06/12 08:50:13;;;;;;;9.95;5.40;;;23.60;97.80;;;;;;4984231;28;20049;-86
2023/06/12 08:52:41;;;;;;;9.18;4.38;;;23.70;97.90;;;;;;4984206;28;20050;-86
2023/06/12 08:55:08;;;;;;;10.98;5.13;;;23.80;97.80;;;;;;4998798;28;20045;-86
2023/06/12 08:57:36;;;;;;;9.05;5.03;;;23.90;97.90;;;;;;4991434;28;20037;-87
2023/06/12 09:00:04;;;;;;;11.55;4.90;;;23.90;97.10;;;;;;4989167;28;20049;-87
2023/06/12 09:02:31;;;;;;;9.85;5.05;;;23.90;97.30;;;;;;4975293;28;20062;-87
2023/06/12 09:05:01;;;;;;;13.65;5.28;;;24.10;97.50;;;;;;4984285;28;20058;-87
2023/06/12 09:07:29;;;;;;;13.98;5.72;;;24.10;97.20;;;;;;4973004;28;20057;-87
2023/06/12 09:09:55;;;;;;;7.90;4.47;;;24.20;97.30;;;;;;4982185;28;20038;-85
2023/06/12 09:12:21;;;;;;;9.48;4.82;;;24.30;96.90;;;;;;4965811;28;20124;-86
2023/06/12 09:14:50;;;;;;;13.40;5.07;;;24.40;96.90;;;;;;4984028;28;20141;-86
2023/06/12 09:17:17;;;;;;;10.82;5.90;;;24.50;97.20;;;;;;4989135;28;20121;-87
2023/06/12 09:19:44;;;;;;;8.05;4.95;;;24.60;96.30;;;;;;4995387;28;20042;-87
2023/06/12 09:22:11;;;;;;;8.48;5.10;;;24.70;96.00;;;;;;4988499;28;20092;-89
2023/06/12 09:24:37;;;;;;;11.25;5.20;;;24.70;95.50;;;;;;4986350;28;20216;-88
2023/06/12 09:27:04;;;;;;;10.23;4.80;;;24.80;95.70;;;;;;4978308;28;20076;-88
2023/06/12 09:29:32;;;;;;;7.45;5.43;;;24.90;96.10;;;;;;4988064;28;20042;-91
2023/06/12 09:32:02;;;;;;;10.13;4.80;;;25.00;95.80;;;;;;5012002;28;20038;-95
2023/06/12 09:34:27;;;;;;;8.35;4.88;;;25.10;95.60;;;;;;5015691;28;20057;-96
2023/06/12 09:36:55;;;;;;;9.65;4.80;;;25.20;95.90;;;;;;4997481;28;20038;-96
2023/06/12 09:39:28;;;;;;;9.00;4.72;;;25.30;96.30;;;;;;5019482;28;20045;-96
2023/06/12 09:41:57;;;;;;;11.50;5.13;;;25.40;96.00;;;;;;4992635;28;20050;-96
2023/06/12 09:44:28;;;;;;;10.95;5.30;;;25.50;96.20;;;;;;5013044;28;20053;-96
2023/06/12 09:46:58;;;;;;;10.25;5.22;;;25.60;96.00;;;;;;4994015;28;20042;-91
2023/06/12 09:49:24;;;;;;;13.07;5.40;;;25.70;96.00;;;;;;4998377;28;20046;-91
2023/06/12 09:51:51;;;;;;;12.73;5.50;;;25.70;96.00;;;;;;5008618;28;20038;-92
2023/06/12 09:54:21;;;;;;;10.27;5.05;;;25.70;95.80;;;;;;4991553;28;20042;-91
2023/06/12 09:56:48;;;;;;;14.40;5.75;;;25.80;95.70;;;;;;4992225;28;20129;-91
2023/06/12 09:59:19;;;;;;;9.13;5.40;;;25.80;95.50;;;;;;4980854;28;20042;-91
2023/06/12 10:01:46;;;;;;;15.82;5.70;;;25.90;95.20;;;;;;5001912;28;20050;-91
2023/06/12 10:04:14;;;;;;;7.55;4.93;;;26.10;95.40;;;;;;5013699;28;20103;-92
2023/06/12 10:06:42;;;;;;;12.70;5.30;;;26.10;94.10;;;;;;4992490;28;20127;-92
2023/06/12 10:09:10;;;;;;;9.40;5.20;;;26.20;93.70;;;;;;4970003;28;20042;-92
2023/06/12 10:11:37;;;;;;;10.57;5.28;;;26.30;93.20;;;;;;4986919;28;20629;-93
2023/06/12 10:14:03;;;;;;;11.82;5.82;;;26.30;92.70;;;;;;5007070;28;20030;-92
2023/06/12 10:16:31;;;;;;;15.00;5.25;;;26.40;92.40;;;;;;5003624;28;20092;-91
2023/06/12 10:18:57;;;;;;;10.90;5.50;;;26.40;92.40;;;;;;5008388;28;20125;-92
2023/06/12 10:21:23;;;;;;;8.55;5.57;;;26.50;92.40;;;;;;4984117;28;20046;-92
2023/06/12 10:23:51;;;;;;;10.25;5.38;;;26.60;92.70;;;;;;5009737;28;20057;-92
2023/06/12 10:26:17;;;;;;;9.23;5.68;;;26.70;92.80;;;;;;4984431;28;20053;-91
2023/06/12 10:28:43;;;;;;;7.55;5.57;;;26.80;93.20;;;;;;4994013;28;20041;-93
2023/06/12 10:31:13;;;;;;;10.00;5.45;;;26.80;92.40;;;;;;5000606;28;20150;-92
2023/06/12 10:33:58;;;;;;;11.40;5.20;;;26.90;92.30;;;;;;5001723;28;20051;-92
2023/06/12 10:36:24;;;;;;;9.63;5.47;;;27.00;92.40;;;;;;4997197;28;20305;-91
2023/06/12 10:39:03;;;;;;;9.73;5.55;;;27.20;91.90;;;;;;4991630;28;20069;-91
2023/06/12 10:41:33;;;;;;;9.82;6.15;;;27.30;91.50;;;;;;4988028;28;20054;-92
2023/06/12 10:43:59;;;;;;;10.20;6.03;;;27.30;91.60;;;;;;5007616;28;20097;-92
2023/06/12 10:46:43;;;;;;;12.55;5.97;;;27.40;91.90;;;;;;5006855;28;20065;-91
2023/06/12 10:49:12;;;;;;;9.63;5.07;;;27.40;92.20;;;;;;5013951;28;20495;-91
2023/06/12 10:51:46;;;;;;;10.48;5.57;;;27.50;92.50;;;;;;5010195;28;20042;-91
2023/06/12 10:54:15;;;;;;;9.40;5.38;;;27.70;92.10;;;;;;4999612;28;20137;-90
2023/06/12 10:57:09;;;;;;;7.90;5.18;;;27.70;91.30;;;;;;4996734;28;20517;-88
2023/06/12 10:59:35;;;;;;;10.63;5.40;;;27.80;90.40;;;;;;5004770;28;20130;-89
2023/06/12 11:02:04;;;;;;;11.20;5.80;;;27.80;91.40;;;;;;4995836;28;20125;-90
2023/06/12 11:04:37;;;;;;;13.43;5.97;;;28.00;91.30;;;;;;4995812;28;20034;-90
2023/06/12 11:07:04;;;;;;;13.15;6.13;;;28.00;91.30;;;;;;4995650;28;20053;-90
2023/06/12 11:09:40;;;;;;;8.52;5.30;;;28.10;91.10;;;;;;5003436;28;20090;-90
2023/06/12 11:12:09;;;;;;;9.70;6.15;;;28.20;90.10;;;;;;5008034;28;20528;-91
2023/06/12 11:14:35;;;;;;;10.98;5.80;;;28.30;90.10;;;;;;4987968;28;20046;-91
2023/06/12 11:17:00;;;;;;;9.52;5.80;;;28.40;85.40;;;;;;4988971;28;20041;-90
2023/06/12 11:19:30;;;;;;;13.68;6.22;;;28.50;88.10;;;;;;4992154;28;20057;-91
2023/06/12 11:21:56;;;;;;;8.25;6.20;;;28.50;88.50;;;;;;4997482;28;20050;-93
2023/06/12 11:24:22;;;;;;;9.07;6.05;;;28.60;89.20;;;;;;5018726;28;20038;-91
2023/06/12 11:26:51;;;;;;;8.82;5.82;;;28.70;88.00;;;;;;5007321;28;20511;-92
2023/06/12 11:29:21;;;;;;;9.80;5.70;;;28.80;89.80;;;;;;5008065;28;20049;-91
2023/06/12 11:31:58;;;;;;;8.98;5.22;;;28.90;88.50;;;;;;5015044;28;20053;-91
2023/06/12 11:34:24;;;;;;;8.55;5.70;;;29.00;86.40;;;;;;5005429;28;20042;-87
2023/06/12 11:36:50;;;;;;;7.65;5.63;;;29.10;86.90;;;;;;4998618;28;20405;-87
2023/06/12 11:39:18;;;;;;;8.02;5.85;;;29.20;86.30;;;;;;5002961;28;20109;-83
2023/06/12 11:41:48;;;;;;;8.82;6.10;;;29.30;84.60;;;;;;4986677;28;20058;-87
2023/06/12 11:44:17;;;;;;;11.52;6.53;;;29.40;85.20;;;;;;5016031;28;20489;-83
2023/06/12 11:46:44;;;;;;;9.90;5.55;;;29.40;83.90;;;;;;5005099;28;20104;-83
2023/06/12 11:49:12;;;;;;;8.27;5.47;;;29.40;84.80;;;;;;5002480;28;20049;-83
2023/06/12 11:51:39;;;;;;;9.38;5.80;;;29.50;84.20;;;;;;5002101;28;20496;-84
2023/06/12 11:54:08;;;;;;;9.77;6.57;;;29.50;84.40;;;;;;4986588;28;20046;-83
2023/06/12 11:56:33;;;;;;;9.30;5.95;;;29.50;83.30;;;;;;4985218;28;20042;-87
2023/06/12 11:58:59;;;;;;;10.85;6.45;;;29.50;83.60;;;;;;4998262;28;20034;-83
2023/06/12 12:01:25;;;;;;;10.80;5.22;;;29.40;84.10;;;;;;4988210;28;20088;-84
2023/06/12 12:03:51;;;;;;;7.18;5.57;;;29.40;84.40;;;;;;4982218;28;20452;-84
2023/06/12 12:06:17;;;;;;;8.05;5.72;;;29.50;84.60;;;;;;4984973;28;20042;-84
2023/06/12 12:08:43;;;;;;;11.75;6.45;;;29.60;84.20;;;;;;4999422;28;20037;-84
2023/06/12 12:11:16;;;;;;;9.13;6.10;;;29.50;83.70;;;;;;4988310;28;20726;-85
2023/06/12 12:14:01;;;;;;;10.15;6.43;;;29.40;83.50;;;;;;5002744;28;20045;-84
2023/06/12 12:16:31;;;;;;;10.18;6.32;;;29.20;85.60;;;;;;5004323;28;20041;-82
2023/06/12 12:18:57;;;;;;;10.57;6.32;;;29.10;86.60;;;;;;4987399;28;20041;-82
2023/06/12 12:21:23;;;;;;;11.75;6.03;;;29.20;86.20;;;;;;4968488;28;20108;-83
2023/06/12 12:23:49;;;;;;;9.60;6.30;;;29.40;86.90;;;;;;4984209;28;20429;-83
2023/06/12 12:26:15;;;;;;;12.20;6.05;;;29.50;85.40;;;;;;5003261;28;20057;-83
2023/06/12 12:28:45;;;;;;;11.00;6.05;;;29.60;85.30;;;;;;5005213;28;20038;-83
2023/06/12 12:31:14;;;;;;;11.18;6.43;;;29.80;86.10;;;;;;5004704;28;20118;-85
2023/06/12 12:33:42;;;;;;;9.70;6.13;;;29.90;84.80;;;;;;5005003;28;20042;-85
2023/06/12 12:36:08;;;;;;;8.32;6.20;;;29.90;83.50;;;;;;5001716;28;20042;-85
2023/06/12 12:38:34;;;;;;;8.48;6.25;;;29.90;83.50;;;;;;4996118;28;20104;-85
2023/06/12 12:40:59;;;;;;;12.00;6.97;;;29.90;82.80;;;;;;4993654;28;20109;-85
2023/06/12 12:43:25;;;;;;;10.77;5.72;;;29.70;83.20;;;;;;4987017;28;20045;-86
2023/06/12 12:45:51;;;;;;;8.55;6.53;;;29.60;83.90;;;;;;4995695;28;20049;-86